sensor_id;sensor_type;location;lat;lon;timestamp;pressure;altitude;pressure_sealevel;temperature;humidity
40372;BME280;28564;53.346;-6.554;2022-11-21T00:00:59;99396.21;;;9.62;51.52
40372;BME280;28564;53.346;-6.554;2022-11-21T00:03:26;99394.00;;;9.62;51.86
40372;BME280;28564;53.346;-6.554;2022-11-21T00:05:54;99381.36;;;9.81;52.07
40372;BME280;28564;53.346;-6.554;2022-11-21T00:08:21;99373.64;;;9.58;51.99
40372;BME280;28564;53.346;-6.554;2022-11-21T00:10:48;99360.01;;;9.57;51.75
40372;BME280;28564;53.346;-6.554;2022-11-21T00:13:17;99355.95;;;9.60;51.53
40372;BME280;28564;53.346;-6.554;2022-11-21T00:15:46;99350.55;;;9.82;51.58
40372;BME280;28564;53.346;-6.554;2022-11-21T00:18:14;99353.39;;;9.58;51.95
40372;BME280;28564;53.346;-6.554;2022-11-21T00:20:42;99352.26;;;9.60;51.96
40372;BME280;28564;53.346;-6.554;2022-11-21T00:23:10;99339.70;;;10.12;52.06
40372;BME280;28564;53.346;-6.554;2022-11-21T00:25:38;99328.24;;;9.65;52.10
40372;BME280;28564;53.346;-6.554;2022-11-21T00:28:05;99324.09;;;9.65;52.16
40372;BME280;28564;53.346;-6.554;2022-11-21T00:30:32;99315.95;;;9.66;52.17
40372;BME280;28564;53.346;-6.554;2022-11-21T00:32:59;99296.88;;;10.15;52.14
40372;BME280;28564;53.346;-6.554;2022-11-21T00:35:26;99276.28;;;9.66;52.27
40372;BME280;28564;53.346;-6.554;2022-11-21T00:37:53;99274.38;;;9.67;52.41
40372;BME280;28564;53.346;-6.554;2022-11-21T00:40:20;99278.54;;;9.72;52.39
40372;BME280;28564;53.346;-6.554;2022-11-21T00:42:48;99278.36;;;9.81;52.41
40372;BME280;28564;53.346;-6.554;2022-11-21T00:45:15;99279.47;;;9.83;52.74
40372;BME280;28564;53.346;-6.554;2022-11-21T00:47:42;99270.85;;;9.89;52.72
40372;BME280;28564;53.346;-6.554;2022-11-21T00:50:10;99255.36;;;10.00;52.57
40372;BME280;28564;53.346;-6.554;2022-11-21T00:52:37;99250.28;;;9.99;52.88
40372;BME280;28564;53.346;-6.554;2022-11-21T00:55:04;99243.64;;;10.01;52.97
40372;BME280;28564;53.346;-6.554;2022-11-21T00:57:32;99228.86;;;10.02;53.03
40372;BME280;28564;53.346;-6.554;2022-11-21T00:59:59;99215.98;;;10.05;53.21
40372;BME280;28564;53.346;-6.554;2022-11-21T01:02:26;99210.95;;;10.08;53.35
40372;BME280;28564;53.346;-6.554;2022-11-21T01:04:53;99203.49;;;10.11;53.32
40372;BME280;28564;53.346;-6.554;2022-11-21T01:07:20;99196.36;;;9.86;53.31
40372;BME280;28564;53.346;-6.554;2022-11-21T01:09:48;99186.82;;;10.13;53.54
40372;BME280;28564;53.346;-6.554;2022-11-21T01:12:15;99179.86;;;10.18;53.42
40372;BME280;28564;53.346;-6.554;2022-11-21T01:14:42;99173.67;;;9.92;53.52
40372;BME280;28564;53.346;-6.554;2022-11-21T01:17:09;99167.90;;;10.22;53.65
40372;BME280;28564;53.346;-6.554;2022-11-21T01:19:36;99162.18;;;9.76;53.79
40372;BME280;28564;53.346;-6.554;2022-11-21T01:22:04;99154.00;;;10.31;53.76
40372;BME280;28564;53.346;-6.554;2022-11-21T01:24:31;99139.17;;;10.34;53.74
40372;BME280;28564;53.346;-6.554;2022-11-21T01:26:58;99129.11;;;10.36;53.84
40372;BME280;28564;53.346;-6.554;2022-11-21T01:29:26;99119.66;;;9.92;54.06
40372;BME280;28564;53.346;-6.554;2022-11-21T01:31:53;99109.56;;;10.45;54.22
40372;BME280;28564;53.346;-6.554;2022-11-21T01:34:21;99100.09;;;10.50;54.23
40372;BME280;28564;53.346;-6.554;2022-11-21T01:36:48;99084.56;;;10.53;54.23
40372;BME280;28564;53.346;-6.554;2022-11-21T01:39:15;99080.92;;;10.53;54.53
40372;BME280;28564;53.346;-6.554;2022-11-21T01:41:44;99074.21;;;10.33;54.48
40372;BME280;28564;53.346;-6.554;2022-11-21T01:44:18;99068.13;;;10.36;54.51
40372;BME280;28564;53.346;-6.554;2022-11-21T01:46:46;99061.27;;;10.38;54.63
40372;BME280;28564;53.346;-6.554;2022-11-21T01:49:16;99047.22;;;10.19;54.55
40372;BME280;28564;53.346;-6.554;2022-11-21T01:51:48;99036.48;;;10.70;54.66
40372;BME280;28564;53.346;-6.554;2022-11-21T01:54:19;99026.13;;;10.49;54.81
40372;BME280;28564;53.346;-6.554;2022-11-21T01:56:51;99016.02;;;10.80;54.91
40372;BME280;28564;53.346;-6.554;2022-11-21T01:59:26;98997.79;;;10.32;54.86
40372;BME280;28564;53.346;-6.554;2022-11-21T02:01:56;98985.61;;;10.33;54.92
40372;BME280;28564;53.346;-6.554;2022-11-21T02:04:29;98973.35;;;10.38;54.88
40372;BME280;28564;53.346;-6.554;2022-11-21T02:06:58;98952.60;;;10.57;55.11
40372;BME280;28564;53.346;-6.554;2022-11-21T02:09:25;98944.21;;;10.59;55.14
40372;BME280;28564;53.346;-6.554;2022-11-21T02:11:56;98941.09;;;10.40;55.06
40372;BME280;28564;53.346;-6.554;2022-11-21T02:14:25;98930.96;;;10.64;55.16
40372;BME280;28564;53.346;-6.554;2022-11-21T02:16:53;98917.81;;;10.51;55.04
40372;BME280;28564;53.346;-6.554;2022-11-21T02:19:27;98908.04;;;10.55;54.84
40372;BME280;28564;53.346;-6.554;2022-11-21T02:22:03;98892.14;;;10.56;54.75
40372;BME280;28564;53.346;-6.554;2022-11-21T02:24:37;98883.77;;;10.82;54.49
40372;BME280;28564;53.346;-6.554;2022-11-21T02:27:09;98884.09;;;10.62;54.34
40372;BME280;28564;53.346;-6.554;2022-11-21T02:29:36;98879.64;;;10.82;54.47
40372;BME280;28564;53.346;-6.554;2022-11-21T02:32:05;98872.09;;;10.66;54.05
40372;BME280;28564;53.346;-6.554;2022-11-21T02:34:33;98866.73;;;10.92;53.90
40372;BME280;28564;53.346;-6.554;2022-11-21T02:37:01;98862.57;;;10.73;53.80
40372;BME280;28564;53.346;-6.554;2022-11-21T02:39:32;98864.63;;;11.00;53.75
40372;BME280;28564;53.346;-6.554;2022-11-21T02:42:04;98867.92;;;10.90;53.17
40372;BME280;28564;53.346;-6.554;2022-11-21T02:44:41;98864.30;;;10.98;52.88
40372;BME280;28564;53.346;-6.554;2022-11-21T02:47:10;98863.35;;;11.13;52.31
40372;BME280;28564;53.346;-6.554;2022-11-21T02:49:41;98855.04;;;11.16;52.42
40372;BME280;28564;53.346;-6.554;2022-11-21T02:52:11;98845.46;;;11.22;52.10
40372;BME280;28564;53.346;-6.554;2022-11-21T02:54:38;98839.53;;;11.21;52.23
40372;BME280;28564;53.346;-6.554;2022-11-21T02:57:05;98825.67;;;11.21;52.48
40372;BME280;28564;53.346;-6.554;2022-11-21T02:59:32;98815.33;;;11.47;52.36
40372;BME280;28564;53.346;-6.554;2022-11-21T03:01:59;98808.86;;;11.29;52.31
40372;BME280;28564;53.346;-6.554;2022-11-21T03:04:26;98798.86;;;11.32;52.30
40372;BME280;28564;53.346;-6.554;2022-11-21T03:06:54;98788.83;;;11.52;52.51
40372;BME280;28564;53.346;-6.554;2022-11-21T03:09:21;98773.48;;;11.28;52.52
40372;BME280;28564;53.346;-6.554;2022-11-21T03:11:48;98765.02;;;11.33;52.35
40372;BME280;28564;53.346;-6.554;2022-11-21T03:14:15;98761.24;;;11.36;52.33
40372;BME280;28564;53.346;-6.554;2022-11-21T03:16:42;98737.89;;;11.32;52.50
40372;BME280;28564;53.346;-6.554;2022-11-21T03:19:10;98723.74;;;11.32;52.57
40372;BME280;28564;53.346;-6.554;2022-11-21T03:21:37;98714.50;;;11.33;52.52
40372;BME280;28564;53.346;-6.554;2022-11-21T03:24:05;98701.21;;;11.32;52.50
40372;BME280;28564;53.346;-6.554;2022-11-21T03:26:32;98684.34;;;11.30;52.62
40372;BME280;28564;53.346;-6.554;2022-11-21T03:28:59;98672.35;;;11.33;52.58
40372;BME280;28564;53.346;-6.554;2022-11-21T03:31:26;98658.26;;;11.36;52.55
40372;BME280;28564;53.346;-6.554;2022-11-21T03:33:53;98636.32;;;11.39;52.43
40372;BME280;28564;53.346;-6.554;2022-11-21T03:36:20;98628.04;;;11.51;52.20
40372;BME280;28564;53.346;-6.554;2022-11-21T03:38:48;98610.76;;;11.62;51.96
40372;BME280;28564;53.346;-6.554;2022-11-21T03:41:15;98599.95;;;11.74;51.64
40372;BME280;28564;53.346;-6.554;2022-11-21T03:43:42;98582.96;;;11.94;50.74
40372;BME280;28564;53.346;-6.554;2022-11-21T03:46:09;98569.68;;;11.79;50.41
40372;BME280;28564;53.346;-6.554;2022-11-21T03:48:36;98565.52;;;12.06;50.25
40372;BME280;28564;53.346;-6.554;2022-11-21T03:51:03;98552.22;;;11.63;50.15
40372;BME280;28564;53.346;-6.554;2022-11-21T03:53:31;98550.46;;;12.19;50.26
40372;BME280;28564;53.346;-6.554;2022-11-21T03:55:58;98550.38;;;11.98;50.52
40372;BME280;28564;53.346;-6.554;2022-11-21T03:58:26;98545.01;;;12.27;50.74
40372;BME280;28564;53.346;-6.554;2022-11-21T04:00:53;98537.13;;;12.38;50.79
40372;BME280;28564;53.346;-6.554;2022-11-21T04:03:20;98534.89;;;11.93;50.89
40372;BME280;28564;53.346;-6.554;2022-11-21T04:05:47;98528.28;;;11.97;50.98
40372;BME280;28564;53.346;-6.554;2022-11-21T04:08:14;98524.70;;;12.22;51.17
40372;BME280;28564;53.346;-6.554;2022-11-21T04:10:45;98510.53;;;12.02;51.17
40372;BME280;28564;53.346;-6.554;2022-11-21T04:13:13;98502.91;;;12.40;51.10
40372;BME280;28564;53.346;-6.554;2022-11-21T04:15:40;98493.18;;;12.21;51.14
40372;BME280;28564;53.346;-6.554;2022-11-21T04:18:07;98478.24;;;12.18;51.31
40372;BME280;28564;53.346;-6.554;2022-11-21T04:20:35;98467.99;;;12.20;51.47
40372;BME280;28564;53.346;-6.554;2022-11-21T04:23:02;98461.94;;;12.20;51.61
40372;BME280;28564;53.346;-6.554;2022-11-21T04:25:29;98454.36;;;12.22;51.65
40372;BME280;28564;53.346;-6.554;2022-11-21T04:27:56;98447.35;;;12.52;51.48
40372;BME280;28564;53.346;-6.554;2022-11-21T04:30:24;98444.65;;;12.26;51.39
40372;BME280;28564;53.346;-6.554;2022-11-21T04:32:51;98433.29;;;12.27;51.24
40372;BME280;28564;53.346;-6.554;2022-11-21T04:35:20;98421.82;;;12.27;51.29
40372;BME280;28564;53.346;-6.554;2022-11-21T04:37:47;98421.95;;;12.27;51.64
40372;BME280;28564;53.346;-6.554;2022-11-21T04:40:15;98413.00;;;12.25;52.02
40372;BME280;28564;53.346;-6.554;2022-11-21T04:42:44;98404.65;;;12.19;52.47
40372;BME280;28564;53.346;-6.554;2022-11-21T04:45:13;98405.11;;;12.38;52.93
40372;BME280;28564;53.346;-6.554;2022-11-21T04:47:43;98396.86;;;12.09;53.23
40372;BME280;28564;53.346;-6.554;2022-11-21T04:50:13;98394.85;;;12.57;53.46
40372;BME280;28564;53.346;-6.554;2022-11-21T04:52:41;98384.16;;;12.04;53.67
40372;BME280;28564;53.346;-6.554;2022-11-21T04:55:09;98377.82;;;12.00;53.80
40372;BME280;28564;53.346;-6.554;2022-11-21T04:57:36;98372.80;;;12.43;53.83
40372;BME280;28564;53.346;-6.554;2022-11-21T05:00:04;98363.64;;;11.93;53.77
40372;BME280;28564;53.346;-6.554;2022-11-21T05:02:31;98350.78;;;11.85;54.04
40372;BME280;28564;53.346;-6.554;2022-11-21T05:04:59;98341.49;;;11.87;53.98
40372;BME280;28564;53.346;-6.554;2022-11-21T05:07:26;98335.46;;;11.86;54.01
40372;BME280;28564;53.346;-6.554;2022-11-21T05:09:53;98328.37;;;12.28;54.26
40372;BME280;28564;53.346;-6.554;2022-11-21T05:12:21;98324.59;;;11.77;54.34
40372;BME280;28564;53.346;-6.554;2022-11-21T05:14:48;98311.50;;;12.23;54.50
40372;BME280;28564;53.346;-6.554;2022-11-21T05:17:15;98301.22;;;11.97;54.61
40372;BME280;28564;53.346;-6.554;2022-11-21T05:19:42;98293.77;;;12.14;54.74
40372;BME280;28564;53.346;-6.554;2022-11-21T05:22:09;98292.07;;;11.87;54.94
40372;BME280;28564;53.346;-6.554;2022-11-21T05:24:37;98280.13;;;11.84;54.83
40372;BME280;28564;53.346;-6.554;2022-11-21T05:27:05;98285.68;;;12.07;54.74
40372;BME280;28564;53.346;-6.554;2022-11-21T05:29:32;98278.24;;;12.04;54.57
40372;BME280;28564;53.346;-6.554;2022-11-21T05:31:59;98270.78;;;12.26;54.39
40372;BME280;28564;53.346;-6.554;2022-11-21T05:34:26;98267.08;;;11.97;54.44
40372;BME280;28564;53.346;-6.554;2022-11-21T05:36:53;98251.08;;;11.76;53.83
40372;BME280;28564;53.346;-6.554;2022-11-21T05:39:21;98246.02;;;11.96;53.85
40372;BME280;28564;53.346;-6.554;2022-11-21T05:41:48;98241.78;;;11.99;53.30
40372;BME280;28564;53.346;-6.554;2022-11-21T05:44:15;98225.39;;;11.99;52.86
40372;BME280;28564;53.346;-6.554;2022-11-21T05:46:42;98223.82;;;11.98;52.89
40372;BME280;28564;53.346;-6.554;2022-11-21T05:49:09;98217.77;;;12.00;52.60
40372;BME280;28564;53.346;-6.554;2022-11-21T05:51:36;98221.63;;;12.00;52.51
40372;BME280;28564;53.346;-6.554;2022-11-21T05:54:04;98209.26;;;11.93;52.84
40372;BME280;28564;53.346;-6.554;2022-11-21T05:56:31;98201.41;;;11.65;53.05
40372;BME280;28564;53.346;-6.554;2022-11-21T05:58:58;98198.46;;;11.86;53.24
40372;BME280;28564;53.346;-6.554;2022-11-21T06:01:25;98193.14;;;11.63;53.53
40372;BME280;28564;53.346;-6.554;2022-11-21T06:03:52;98192.04;;;11.96;53.52
40372;BME280;28564;53.346;-6.554;2022-11-21T06:06:19;98190.38;;;11.96;53.79
40372;BME280;28564;53.346;-6.554;2022-11-21T06:08:47;98190.98;;;11.95;54.11
40372;BME280;28564;53.346;-6.554;2022-11-21T06:11:16;98185.91;;;11.75;54.28
40372;BME280;28564;53.346;-6.554;2022-11-21T06:13:44;98177.06;;;11.67;54.70
40372;BME280;28564;53.346;-6.554;2022-11-21T06:16:12;98173.56;;;11.72;54.75
40372;BME280;28564;53.346;-6.554;2022-11-21T06:18:41;98168.25;;;11.99;54.79
40372;BME280;28564;53.346;-6.554;2022-11-21T06:21:13;98162.74;;;11.55;54.85
40372;BME280;28564;53.346;-6.554;2022-11-21T06:23:41;98159.59;;;12.03;54.87
40372;BME280;28564;53.346;-6.554;2022-11-21T06:26:11;98158.77;;;11.52;54.88
40372;BME280;28564;53.346;-6.554;2022-11-21T06:28:40;98159.57;;;11.74;55.12
40372;BME280;28564;53.346;-6.554;2022-11-21T06:31:10;98152.02;;;11.74;54.99
40372;BME280;28564;53.346;-6.554;2022-11-21T06:33:38;98146.31;;;11.45;55.00
40372;BME280;28564;53.346;-6.554;2022-11-21T06:36:08;98140.32;;;11.72;55.10
40372;BME280;28564;53.346;-6.554;2022-11-21T06:38:36;98134.01;;;11.42;55.27
40372;BME280;28564;53.346;-6.554;2022-11-21T06:41:04;98119.60;;;11.66;55.36
40372;BME280;28564;53.346;-6.554;2022-11-21T06:43:31;98117.51;;;11.86;55.46
40372;BME280;28564;53.346;-6.554;2022-11-21T06:45:58;98104.94;;;11.43;55.41
40372;BME280;28564;53.346;-6.554;2022-11-21T06:48:25;98094.42;;;11.90;55.53
40372;BME280;28564;53.346;-6.554;2022-11-21T06:50:53;98096.55;;;11.94;55.29
40372;BME280;28564;53.346;-6.554;2022-11-21T06:53:20;98100.02;;;11.72;55.29
40372;BME280;28564;53.346;-6.554;2022-11-21T06:55:47;98087.21;;;11.89;55.30
40372;BME280;28564;53.346;-6.554;2022-11-21T06:58:14;98084.88;;;11.85;55.50
40372;BME280;28564;53.346;-6.554;2022-11-21T07:00:41;98078.26;;;11.83;55.50
40372;BME280;28564;53.346;-6.554;2022-11-21T07:03:08;98072.41;;;11.81;55.19
40372;BME280;28564;53.346;-6.554;2022-11-21T07:05:36;98072.29;;;11.76;55.24
40372;BME280;28564;53.346;-6.554;2022-11-21T07:08:03;98068.98;;;11.70;55.42
40372;BME280;28564;53.346;-6.554;2022-11-21T07:10:31;98063.72;;;11.62;55.70
40372;BME280;28564;53.346;-6.554;2022-11-21T07:12:58;98056.47;;;11.55;56.01
40372;BME280;28564;53.346;-6.554;2022-11-21T07:15:26;98049.77;;;11.49;56.24
40372;BME280;28564;53.346;-6.554;2022-11-21T07:17:53;98043.03;;;11.50;56.25
40372;BME280;28564;53.346;-6.554;2022-11-21T07:20:20;98039.13;;;11.26;56.39
40372;BME280;28564;53.346;-6.554;2022-11-21T07:22:47;98037.30;;;11.54;56.31
40372;BME280;28564;53.346;-6.554;2022-11-21T07:25:15;98034.90;;;11.54;56.33
40372;BME280;28564;53.346;-6.554;2022-11-21T07:27:42;98028.11;;;11.58;55.88
40372;BME280;28564;53.346;-6.554;2022-11-21T07:30:10;98017.06;;;11.57;55.61
40372;BME280;28564;53.346;-6.554;2022-11-21T07:32:37;98015.06;;;11.55;55.41
40372;BME280;28564;53.346;-6.554;2022-11-21T07:35:05;98011.04;;;11.55;55.35
40372;BME280;28564;53.346;-6.554;2022-11-21T07:37:36;98005.63;;;11.58;54.76
40372;BME280;28564;53.346;-6.554;2022-11-21T07:40:05;97995.97;;;11.48;55.21
40372;BME280;28564;53.346;-6.554;2022-11-21T07:42:32;97986.02;;;11.47;55.13
40372;BME280;28564;53.346;-6.554;2022-11-21T07:44:59;97982.93;;;11.43;55.29
40372;BME280;28564;53.346;-6.554;2022-11-21T07:47:26;97976.01;;;11.48;55.03
40372;BME280;28564;53.346;-6.554;2022-11-21T07:49:53;97964.68;;;11.45;54.87
40372;BME280;28564;53.346;-6.554;2022-11-21T07:52:21;97960.38;;;11.37;55.32
40372;BME280;28564;53.346;-6.554;2022-11-21T07:54:48;97954.20;;;11.48;54.70
40372;BME280;28564;53.346;-6.554;2022-11-21T07:57:15;97947.74;;;11.41;54.98
40372;BME280;28564;53.346;-6.554;2022-11-21T07:59:43;97939.13;;;11.36;55.35
40372;BME280;28564;53.346;-6.554;2022-11-21T08:02:17;97931.69;;;11.41;55.48
40372;BME280;28564;53.346;-6.554;2022-11-21T08:04:45;97911.40;;;11.45;55.52
40372;BME280;28564;53.346;-6.554;2022-11-21T08:07:12;97901.64;;;11.28;55.57
40372;BME280;28564;53.346;-6.554;2022-11-21T08:09:39;97896.73;;;11.35;55.38
40372;BME280;28564;53.346;-6.554;2022-11-21T08:12:06;97891.37;;;11.39;55.29
40372;BME280;28564;53.346;-6.554;2022-11-21T08:14:34;97880.40;;;11.43;55.44
40372;BME280;28564;53.346;-6.554;2022-11-21T08:17:02;97879.68;;;11.62;55.77
40372;BME280;28564;53.346;-6.554;2022-11-21T08:19:30;97871.83;;;11.44;55.74
40372;BME280;28564;53.346;-6.554;2022-11-21T08:21:58;97874.76;;;11.22;55.78
40372;BME280;28564;53.346;-6.554;2022-11-21T08:24:26;97868.44;;;11.96;55.81
40372;BME280;28564;53.346;-6.554;2022-11-21T08:26:53;97862.02;;;11.72;56.12
40372;BME280;28564;53.346;-6.554;2022-11-21T08:29:21;97861.01;;;11.50;56.23
40372;BME280;28564;53.346;-6.554;2022-11-21T08:31:47;97847.87;;;11.70;56.58
40372;BME280;28564;53.346;-6.554;2022-11-21T08:34:15;97839.88;;;11.76;56.60
40372;BME280;28564;53.346;-6.554;2022-11-21T08:36:42;97840.71;;;11.78;56.79
40372;BME280;28564;53.346;-6.554;2022-11-21T08:39:09;97833.72;;;11.58;56.80
40372;BME280;28564;53.346;-6.554;2022-11-21T08:41:36;97829.74;;;11.82;56.87
40372;BME280;28564;53.346;-6.554;2022-11-21T08:44:04;97818.42;;;11.84;56.82
40372;BME280;28564;53.346;-6.554;2022-11-21T08:46:32;97814.65;;;11.58;56.93
40372;BME280;28564;53.346;-6.554;2022-11-21T08:49:00;97804.52;;;11.58;56.87
40372;BME280;28564;53.346;-6.554;2022-11-21T08:51:27;97801.60;;;11.41;56.56
40372;BME280;28564;53.346;-6.554;2022-11-21T08:53:54;97799.99;;;11.97;56.24
40372;BME280;28564;53.346;-6.554;2022-11-21T08:56:21;97792.00;;;11.95;56.19
40372;BME280;28564;53.346;-6.554;2022-11-21T08:58:49;97790.75;;;11.99;55.99
40372;BME280;28564;53.346;-6.554;2022-11-21T09:01:16;97787.50;;;11.51;55.99
40372;BME280;28564;53.346;-6.554;2022-11-21T09:03:43;97779.74;;;11.99;56.13
40372;BME280;28564;53.346;-6.554;2022-11-21T09:06:10;97775.50;;;11.97;56.25
40372;BME280;28564;53.346;-6.554;2022-11-21T09:08:38;97767.28;;;11.70;56.46
40372;BME280;28564;53.346;-6.554;2022-11-21T09:11:06;97761.59;;;11.71;56.51
40372;BME280;28564;53.346;-6.554;2022-11-21T09:13:35;97756.06;;;11.91;56.67
40372;BME280;28564;53.346;-6.554;2022-11-21T09:16:03;97742.97;;;11.65;56.99
40372;BME280;28564;53.346;-6.554;2022-11-21T09:18:30;97740.61;;;11.65;57.14
40372;BME280;28564;53.346;-6.554;2022-11-21T09:20:57;97729.38;;;11.85;57.28
40372;BME280;28564;53.346;-6.554;2022-11-21T09:23:25;97734.19;;;11.64;57.34
40372;BME280;28564;53.346;-6.554;2022-11-21T09:25:52;97743.88;;;11.86;57.38
40372;BME280;28564;53.346;-6.554;2022-11-21T09:28:19;97744.77;;;11.86;57.14
40372;BME280;28564;53.346;-6.554;2022-11-21T09:30:46;97744.39;;;11.85;56.60
40372;BME280;28564;53.346;-6.554;2022-11-21T09:33:15;97755.75;;;11.56;56.36
40372;BME280;28564;53.346;-6.554;2022-11-21T09:35:42;97766.52;;;11.68;56.48
40372;BME280;28564;53.346;-6.554;2022-11-21T09:38:09;97780.14;;;11.57;56.83
40372;BME280;28564;53.346;-6.554;2022-11-21T09:40:40;97801.97;;;11.55;56.13
40372;BME280;28564;53.346;-6.554;2022-11-21T09:43:34;97805.44;;;11.36;54.78
40372;BME280;28564;53.346;-6.554;2022-11-21T09:46:09;97828.36;;;10.95;53.24
40372;BME280;28564;53.346;-6.554;2022-11-21T09:48:45;97861.70;;;10.60;51.88
40372;BME280;28564;53.346;-6.554;2022-11-21T09:51:15;97861.93;;;10.37;51.66
40372;BME280;28564;53.346;-6.554;2022-11-21T09:53:53;97863.47;;;10.04;52.21
40372;BME280;28564;53.346;-6.554;2022-11-21T09:56:22;97882.28;;;9.74;52.52
40372;BME280;28564;53.346;-6.554;2022-11-21T09:59:04;97874.64;;;9.50;53.10
40372;BME280;28564;53.346;-6.554;2022-11-21T10:03:51;97868.39;;;9.55;53.07
40372;BME280;28564;53.346;-6.554;2022-11-21T10:06:20;97874.68;;;9.39;53.84
40372;BME280;28564;53.346;-6.554;2022-11-21T10:08:56;97871.96;;;9.70;54.46
40372;BME280;28564;53.346;-6.554;2022-11-21T10:11:37;97873.44;;;9.07;55.17
40372;BME280;28564;53.346;-6.554;2022-11-21T10:14:11;97875.56;;;9.42;55.66
40372;BME280;28564;53.346;-6.554;2022-11-21T10:16:46;97869.95;;;9.33;56.08
40372;BME280;28564;53.346;-6.554;2022-11-21T10:19:27;97872.93;;;9.29;56.61
40372;BME280;28564;53.346;-6.554;2022-11-21T10:22:07;97868.23;;;9.24;56.80
40372;BME280;28564;53.346;-6.554;2022-11-21T10:24:49;97873.98;;;9.48;57.24
40372;BME280;28564;53.346;-6.554;2022-11-21T10:27:27;97873.62;;;9.28;57.61
40372;BME280;28564;53.346;-6.554;2022-11-21T10:29:59;97884.99;;;9.34;57.00
40372;BME280;28564;53.346;-6.554;2022-11-21T10:32:30;97876.78;;;9.34;56.89
40372;BME280;28564;53.346;-6.554;2022-11-21T10:35:13;97881.75;;;9.34;56.88
40372;BME280;28564;53.346;-6.554;2022-11-21T10:37:46;97888.53;;;9.33;56.50
40372;BME280;28564;53.346;-6.554;2022-11-21T10:40:29;97890.05;;;9.32;56.55
40372;BME280;28564;53.346;-6.554;2022-11-21T10:43:02;97894.70;;;9.33;56.55
40372;BME280;28564;53.346;-6.554;2022-11-21T10:45:30;97897.54;;;9.34;56.73
40372;BME280;28564;53.346;-6.554;2022-11-21T10:47:58;97895.01;;;9.07;56.76
40372;BME280;28564;53.346;-6.554;2022-11-21T10:50:38;97892.68;;;9.09;56.48
40372;BME280;28564;53.346;-6.554;2022-11-21T10:53:14;97895.20;;;9.38;56.32
40372;BME280;28564;53.346;-6.554;2022-11-21T10:55:57;97896.41;;;9.42;56.36
40372;BME280;28564;53.346;-6.554;2022-11-21T10:58:34;97897.41;;;9.20;55.89
40372;BME280;28564;53.346;-6.554;2022-11-21T11:01:03;97898.27;;;9.45;55.65
40372;BME280;28564;53.346;-6.554;2022-11-21T11:03:30;97905.33;;;9.45;55.09
40372;BME280;28564;53.346;-6.554;2022-11-21T11:05:58;97914.33;;;9.45;55.33
40372;BME280;28564;53.346;-6.554;2022-11-21T11:08:25;97909.82;;;9.28;55.10
40372;BME280;28564;53.346;-6.554;2022-11-21T11:11:02;97931.09;;;9.17;55.05
40372;BME280;28564;53.346;-6.554;2022-11-21T11:13:30;97920.88;;;9.31;54.79
40372;BME280;28564;53.346;-6.554;2022-11-21T11:16:03;97924.11;;;9.85;54.44
40372;BME280;28564;53.346;-6.554;2022-11-21T11:18:32;97920.40;;;9.56;54.67
40372;BME280;28564;53.346;-6.554;2022-11-21T11:21:14;97915.28;;;9.57;54.42
40372;BME280;28564;53.346;-6.554;2022-11-21T11:23:41;97922.15;;;9.87;54.78
40372;BME280;28564;53.346;-6.554;2022-11-21T11:26:27;97920.16;;;9.68;54.69
40372;BME280;28564;53.346;-6.554;2022-11-21T11:29:07;97927.58;;;9.77;54.95
40372;BME280;28564;53.346;-6.554;2022-11-21T11:31:44;97929.31;;;9.68;54.98
40372;BME280;28564;53.346;-6.554;2022-11-21T11:34:15;97923.51;;;9.82;54.54
40372;BME280;28564;53.346;-6.554;2022-11-21T11:36:53;97927.56;;;10.01;54.30
40372;BME280;28564;53.346;-6.554;2022-11-21T11:39:35;97932.58;;;10.19;53.92
40372;BME280;28564;53.346;-6.554;2022-11-21T11:42:21;97930.69;;;10.33;53.25
40372;BME280;28564;53.346;-6.554;2022-11-21T11:45:01;97931.39;;;10.42;53.10
40372;BME280;28564;53.346;-6.554;2022-11-21T11:47:36;97929.65;;;10.53;52.86
40372;BME280;28564;53.346;-6.554;2022-11-21T11:50:10;97928.32;;;10.29;52.43
40372;BME280;28564;53.346;-6.554;2022-11-21T11:52:46;97927.52;;;10.27;52.47
40372;BME280;28564;53.346;-6.554;2022-11-21T11:55:21;97922.49;;;10.18;52.29
40372;BME280;28564;53.346;-6.554;2022-11-21T11:57:52;97917.08;;;10.36;51.96
40372;BME280;28564;53.346;-6.554;2022-11-21T12:00:29;97914.96;;;10.19;52.38
40372;BME280;28564;53.346;-6.554;2022-11-21T12:03:03;97909.79;;;9.84;52.66
40372;BME280;28564;53.346;-6.554;2022-11-21T12:05:36;97902.29;;;10.02;52.75
40372;BME280;28564;53.346;-6.554;2022-11-21T12:08:13;97902.89;;;9.93;52.89
40372;BME280;28564;53.346;-6.554;2022-11-21T12:10:46;97894.71;;;9.93;52.91
40372;BME280;28564;53.346;-6.554;2022-11-21T12:13:18;97893.67;;;10.05;53.39
40372;BME280;28564;53.346;-6.554;2022-11-21T12:15:47;97889.83;;;10.07;53.17
40372;BME280;28564;53.346;-6.554;2022-11-21T12:18:25;97879.75;;;10.60;53.16
40372;BME280;28564;53.346;-6.554;2022-11-21T12:20:59;97878.17;;;10.21;53.35
40372;BME280;28564;53.346;-6.554;2022-11-21T12:23:31;97878.36;;;10.50;53.44
40372;BME280;28564;53.346;-6.554;2022-11-21T12:26:11;97881.35;;;10.55;53.47
40372;BME280;28564;53.346;-6.554;2022-11-21T12:28:50;97876.83;;;10.63;53.42
40372;BME280;28564;53.346;-6.554;2022-11-21T12:31:31;97881.96;;;10.81;53.73
40372;BME280;28564;53.346;-6.554;2022-11-21T12:34:07;97877.79;;;10.95;53.43
40372;BME280;28564;53.346;-6.554;2022-11-21T12:36:43;97883.43;;;10.90;51.95
40372;BME280;28564;53.346;-6.554;2022-11-21T12:39:36;97887.49;;;10.98;52.07
40372;BME280;28564;53.346;-6.554;2022-11-21T12:42:10;97880.57;;;11.11;51.53
40372;BME280;28564;53.346;-6.554;2022-11-21T12:44:53;97875.70;;;11.21;51.30
40372;BME280;28564;53.346;-6.554;2022-11-21T12:47:40;97876.39;;;11.52;51.25
40372;BME280;28564;53.346;-6.554;2022-11-21T12:50:15;97878.13;;;11.32;50.47
40372;BME280;28564;53.346;-6.554;2022-11-21T12:52:48;97867.61;;;11.34;50.03
40372;BME280;28564;53.346;-6.554;2022-11-21T12:55:23;97876.69;;;11.43;49.67
40372;BME280;28564;53.346;-6.554;2022-11-21T12:58:20;97864.12;;;11.24;49.43
40372;BME280;28564;53.346;-6.554;2022-11-21T13:01:03;97862.19;;;11.54;49.44
40372;BME280;28564;53.346;-6.554;2022-11-21T13:03:49;97851.21;;;11.45;49.10
40372;BME280;28564;53.346;-6.554;2022-11-21T13:06:21;97836.80;;;11.75;48.89
40372;BME280;28564;53.346;-6.554;2022-11-21T13:08:51;97845.15;;;11.78;48.44